createdAt,value
2019-02-12T00:01:09.794Z,2.05
2019-02-12T00:07:04.798Z,1.88
2019-02-12T00:12:59.785Z,1.37
2019-02-12T00:18:54.774Z,1.26
2019-02-12T00:24:49.797Z,1.21
2019-02-12T00:30:44.774Z,1.56
2019-02-12T00:36:39.857Z,1.11
2019-02-12T00:42:34.817Z,1
2019-02-12T00:48:29.797Z,0.99
2019-02-12T00:54:24.814Z,0.84
2019-02-12T01:00:19.793Z,0.85
2019-02-12T01:06:14.810Z,0.77
2019-02-12T01:12:09.853Z,1.23
2019-02-12T01:18:04.842Z,0.76
2019-02-12T01:23:59.833Z,0.87
2019-02-12T01:29:54.818Z,0.88
2019-02-12T01:35:49.828Z,0.77
2019-02-12T01:41:44.837Z,0.87
2019-02-12T01:47:39.815Z,2.3
2019-02-12T01:53:34.817Z,2.44
2019-02-12T01:59:29.843Z,2.18
2019-02-12T02:05:24.845Z,2.26
2019-02-12T02:11:19.862Z,2.12
2019-02-12T02:17:14.831Z,1.69
2019-02-12T02:23:09.861Z,1.73
2019-02-12T02:29:04.863Z,1.55
2019-02-12T02:34:59.853Z,1.71
2019-02-12T02:40:54.876Z,1.27
2019-02-12T02:46:49.873Z,1.19
2019-02-12T02:52:44.876Z,1.03
2019-02-12T02:58:39.909Z,0.89
2019-02-12T03:04:34.899Z,0.85
2019-02-12T03:10:29.869Z,1.28
2019-02-12T03:16:24.868Z,0.91
2019-02-12T03:22:19.879Z,1.29
2019-02-12T03:28:14.904Z,1
2019-02-12T03:34:09.920Z,1.07
2019-02-12T03:40:04.917Z,0.99
2019-02-12T03:45:59.904Z,0.97
2019-02-12T03:51:54.895Z,0.98
2019-02-12T03:57:49.913Z,0.97
2019-02-12T04:03:44.888Z,1.27
2019-02-12T04:09:39.925Z,1.56
2019-02-12T04:15:34.951Z,1.31
2019-02-12T04:21:29.954Z,1.37
2019-02-12T04:27:24.918Z,1.36
2019-02-12T04:33:19.919Z,1.3
2019-02-12T04:39:14.927Z,1.5
2019-02-12T04:45:09.921Z,1.24
2019-02-12T04:51:04.964Z,1.38
2019-02-12T04:56:59.925Z,1.21
2019-02-12T05:02:54.927Z,1.64
2019-02-12T05:08:49.954Z,1.86
2019-02-12T05:15:08.236Z,1.98
2019-02-12T05:20:39.936Z,1.98
2019-02-12T05:26:34.990Z,1.9
2019-02-12T05:32:29.976Z,1.9
2019-02-12T05:38:24.944Z,1.86
2019-02-12T05:44:19.954Z,1.57
2019-02-12T05:50:14.935Z,2.26
2019-02-12T05:56:09.958Z,1.6
2019-02-12T06:02:04.983Z,2.11
2019-02-12T06:07:59.974Z,1.9
2019-02-12T06:13:54.975Z,1.71
2019-02-12T06:19:49.982Z,2.95
2019-02-12T06:25:44.976Z,2.95
2019-02-12T06:31:39.989Z,3.48
2019-02-12T06:37:34.983Z,1.91
2019-02-12T06:43:29.980Z,1.79
2019-02-12T06:49:24.997Z,2.06
2019-02-12T06:55:19.983Z,2.17
2019-02-12T07:01:15.069Z,2.3
2019-02-12T07:07:10.007Z,2.08
2019-02-12T07:13:05.014Z,2.01
2019-02-12T07:19:00.027Z,1.68
2019-02-12T07:24:55.013Z,2.15
2019-02-12T07:30:50.035Z,2.89
2019-02-12T07:36:45.013Z,3.32
2019-02-12T07:42:40.031Z,4.44
2019-02-12T07:48:35.010Z,4.37
2019-02-12T07:54:30.010Z,4.27
2019-02-12T08:00:25.041Z,9.86
2019-02-12T08:06:20.003Z,8.17
2019-02-12T08:12:15.075Z,4
2019-02-12T08:18:10.013Z,6.59
2019-02-12T08:24:05.034Z,18.5
2019-02-12T08:30:00.054Z,26.04
2019-02-12T08:35:57.179Z,20.99
2019-02-12T08:41:50.056Z,8.77
2019-02-12T08:47:45.054Z,6.5
2019-02-12T08:53:40.053Z,10.39
2019-02-12T08:59:35.114Z,7.71
2019-02-12T09:05:30.066Z,8.85
2019-02-12T09:11:25.086Z,8.09
2019-02-12T09:17:20.080Z,12.45
2019-02-12T09:23:15.054Z,19.62
2019-02-12T09:29:10.103Z,9.51
2019-02-12T09:35:05.072Z,7.78
2019-02-12T09:41:00.088Z,8.23
2019-02-12T09:46:55.089Z,25.68
2019-02-12T09:52:50.080Z,36.3
2019-02-12T09:58:45.075Z,28.94
2019-02-12T10:04:40.072Z,33.69
2019-02-12T10:10:35.107Z,30.61
2019-02-12T10:16:30.134Z,7.79
2019-02-12T10:22:25.087Z,9.04
2019-02-12T10:28:20.123Z,4.83
2019-02-12T10:34:15.089Z,5.17
2019-02-12T10:40:10.102Z,3.95
2019-02-12T10:46:05.109Z,2.78
2019-02-12T10:52:00.122Z,2.579308
2019-02-12T10:57:55.116Z,4.05
2019-02-12T11:03:50.155Z,10.03
2019-02-12T11:09:45.156Z,21.39
2019-02-12T11:15:40.136Z,19.03
2019-02-12T11:21:35.129Z,44.64
2019-02-12T11:27:30.138Z,16.1
2019-02-12T11:33:25.154Z,7.99
2019-02-12T11:39:20.138Z,9.27
2019-02-12T11:45:15.166Z,8.04
2019-02-12T11:51:10.162Z,2.69
2019-02-12T11:57:05.167Z,12.15
2019-02-12T12:03:00.194Z,4.68
2019-02-12T12:08:55.174Z,4.51
2019-02-12T12:14:50.161Z,5.46
2019-02-12T12:20:45.157Z,3.29
2019-02-12T12:26:40.248Z,3.43
2019-02-12T12:32:35.182Z,3.68
2019-02-12T12:38:30.187Z,4.89
2019-02-12T12:44:25.187Z,3.77
2019-02-12T12:50:20.194Z,4.05
2019-02-12T12:56:15.239Z,3.83
2019-02-12T13:02:10.192Z,3.23
2019-02-12T13:08:05.242Z,3.44
2019-02-12T13:14:00.241Z,3.57
2019-02-12T13:19:55.187Z,3.17
2019-02-12T13:25:50.228Z,3.35
2019-02-12T13:31:45.210Z,3.89
2019-02-12T13:37:40.214Z,3.66
2019-02-12T13:43:35.232Z,3.16
2019-02-12T13:49:30.218Z,2.51
2019-02-12T13:55:25.215Z,2.04
2019-02-12T14:01:20.235Z,2.26
2019-02-12T14:07:15.226Z,2.56
2019-02-12T14:13:10.235Z,3.07
2019-02-12T14:19:05.279Z,2.56
2019-02-12T14:25:00.253Z,2.43
2019-02-12T14:30:55.239Z,2.81
2019-02-12T14:36:50.257Z,2.63
2019-02-12T14:42:45.247Z,2.92
2019-02-12T14:48:40.250Z,2.68
2019-02-12T14:54:35.330Z,2.6
2019-02-12T15:00:30.314Z,2.65
2019-02-12T15:06:25.269Z,2.61
2019-02-12T15:12:20.299Z,2.85
2019-02-12T15:18:15.286Z,5.27
2019-02-12T15:24:10.296Z,3.06
2019-02-12T15:30:05.280Z,2.71
2019-02-12T15:36:00.295Z,2.7
2019-02-12T15:41:55.307Z,2.91
2019-02-12T15:47:50.306Z,3.02
2019-02-12T15:53:45.344Z,2.68
2019-02-12T15:59:40.325Z,2.6
2019-02-12T16:05:35.292Z,2.41
2019-02-12T16:11:30.330Z,4.94
2019-02-12T16:17:25.318Z,6.49
2019-02-12T16:23:20.325Z,4.43
2019-02-12T16:29:15.313Z,2.6
2019-02-12T16:35:10.310Z,2.94
2019-02-12T16:41:05.318Z,1.88
2019-02-12T16:47:00.364Z,1.9
2019-02-12T16:52:55.337Z,2.19
2019-02-12T16:58:50.331Z,2.17
2019-02-12T17:04:45.325Z,2.67
2019-02-12T17:10:40.364Z,3.13
2019-02-12T17:16:35.393Z,2.66
2019-02-12T17:22:30.358Z,2.14
2019-02-12T17:28:25.358Z,2.06
2019-02-12T17:34:20.349Z,2.51
2019-02-12T17:40:15.362Z,2.53
2019-02-12T17:46:10.362Z,2.56
2019-02-12T17:52:05.347Z,2.53
2019-02-12T17:58:00.394Z,2.51
2019-02-12T18:03:55.356Z,2.15
2019-02-12T18:09:50.363Z,2.35
2019-02-12T18:15:45.385Z,2.72
2019-02-12T18:21:40.383Z,2.79
2019-02-12T18:27:35.410Z,2.41
2019-02-12T18:33:30.401Z,2.97
2019-02-12T18:39:25.424Z,3.87
2019-02-12T18:45:20.372Z,3.32
2019-02-12T18:51:15.458Z,3.83
2019-02-12T18:57:10.413Z,3.72
2019-02-12T19:03:05.420Z,3.83
2019-02-12T19:09:00.419Z,3.35
2019-02-12T19:14:55.406Z,3.17
2019-02-12T19:20:50.415Z,3.03
2019-02-12T19:26:49.848Z,3.62
2019-02-12T19:32:40.423Z,3.97
2019-02-12T19:38:35.410Z,3.69
2019-02-12T19:44:30.417Z,3.19
2019-02-12T19:50:25.463Z,4.12
2019-02-12T19:56:20.428Z,3.62
2019-02-12T20:02:15.430Z,3.57
2019-02-12T20:08:10.493Z,3.41
2019-02-12T20:14:05.492Z,4.26
2019-02-12T20:20:00.453Z,3.3
2019-02-12T20:25:55.448Z,3.04
2019-02-12T20:31:50.490Z,3.25
2019-02-12T20:37:45.441Z,3.45
2019-02-12T20:43:40.459Z,3.79
2019-02-12T20:49:35.448Z,4.55
2019-02-12T20:55:30.478Z,3.98
2019-02-12T21:01:25.475Z,3.89
2019-02-12T21:07:20.511Z,4.63
2019-02-12T21:13:15.489Z,3.85
2019-02-12T21:19:10.480Z,6.26
2019-02-12T21:25:05.484Z,6.98
2019-02-12T21:31:00.542Z,8.4
2019-02-12T21:36:55.481Z,9.28
2019-02-12T21:42:50.478Z,8.43
2019-02-12T21:48:45.516Z,9.62
2019-02-12T21:54:40.484Z,7.73
2019-02-12T22:00:35.594Z,4.59
2019-02-12T22:06:30.498Z,4.78
2019-02-12T22:12:25.518Z,4.97
2019-02-12T22:18:20.503Z,5.34
2019-02-12T22:24:15.521Z,5.19
2019-02-12T22:30:10.527Z,4.01
2019-02-12T22:36:05.514Z,3.63
2019-02-12T22:42:00.525Z,3.77
2019-02-12T22:47:55.536Z,3.28
2019-02-12T22:53:50.524Z,3.7
2019-02-12T22:59:45.568Z,3.83
2019-02-12T23:05:40.532Z,47.75
2019-02-12T23:11:35.536Z,6.94
2019-02-12T23:17:30.592Z,4.72
2019-02-12T23:23:25.567Z,4.13
2019-02-12T23:29:20.548Z,4.9
2019-02-12T23:35:15.568Z,3.9
2019-02-12T23:41:10.568Z,3.33
2019-02-12T23:47:05.578Z,2.99
2019-02-12T23:53:00.560Z,3.78
2019-02-12T23:58:55.572Z,3.04
